NCAR-RAP Real-Time Weather Data

Output produced by METARs form (14 October 2019  23:16 UTC)
found at http://weather.rap.ucar.edu/surface/
 
KDEN 142253Z 35006KT 10SM FEW120 SCT220 23/M10 A2990 RMK AO2 SLP068 T02331100